createdAt,value
2023-05-15T00:00:03.067Z,3.10
2023-05-15T00:01:03.152Z,3.10
2023-05-15T00:02:03.091Z,3.10
2023-05-15T00:03:02.269Z,3.10
2023-05-15T00:04:02.795Z,3.00
2023-05-15T00:05:02.522Z,3.00
2023-05-15T00:06:02.472Z,3.00
2023-05-15T00:07:02.371Z,3.00
2023-05-15T00:08:03.042Z,3.00
2023-05-15T00:09:02.724Z,2.90
2023-05-15T00:10:02.619Z,2.90
2023-05-15T00:11:02.581Z,2.90
2023-05-15T00:12:02.403Z,2.90
2023-05-15T00:13:02.041Z,2.90
2023-05-15T00:14:01.992Z,3.30
2023-05-15T00:15:02.566Z,3.30
2023-05-15T00:16:02.199Z,3.30
2023-05-15T00:17:02.045Z,3.30
2023-05-15T00:18:03.205Z,3.30
2023-05-15T00:19:03.303Z,3.40
2023-05-15T00:20:02.968Z,3.40
2023-05-15T00:21:02.940Z,3.40
2023-05-15T00:22:02.850Z,3.40
2023-05-15T00:23:02.740Z,3.40
2023-05-15T00:24:03.022Z,3.10
2023-05-15T00:25:02.755Z,3.10
2023-05-15T00:26:03.086Z,3.10
2023-05-15T00:27:03.045Z,3.10
2023-05-15T00:28:02.132Z,3.10
2023-05-15T00:29:02.075Z,3.80
2023-05-15T00:30:02.180Z,3.80
2023-05-15T00:31:02.296Z,3.80
2023-05-15T00:32:02.204Z,3.80
2023-05-15T00:33:02.155Z,3.80
2023-05-15T00:34:02.208Z,3.20
2023-05-15T00:35:02.157Z,3.20
2023-05-15T00:36:02.434Z,3.20
2023-05-15T00:37:02.463Z,3.20
2023-05-15T00:38:02.847Z,3.20
2023-05-15T00:39:02.804Z,3.20
2023-05-15T00:40:02.854Z,3.20
2023-05-15T00:41:02.917Z,3.20
2023-05-15T00:42:02.837Z,3.20
2023-05-15T00:43:02.749Z,3.20
2023-05-15T00:44:02.658Z,3.10
2023-05-15T00:45:03.296Z,3.10
2023-05-15T00:46:02.976Z,3.10
2023-05-15T00:47:02.945Z,3.10
2023-05-15T00:48:02.996Z,3.10
2023-05-15T00:49:03.022Z,3.50
2023-05-15T00:50:03.306Z,3.50
2023-05-15T00:51:03.292Z,3.50
2023-05-15T00:52:03.250Z,3.50
2023-05-15T00:53:02.249Z,3.50
2023-05-15T00:54:02.366Z,3.40
2023-05-15T00:55:02.463Z,3.40
2023-05-15T00:56:02.443Z,3.40
2023-05-15T00:57:02.409Z,3.40
2023-05-15T00:58:02.381Z,3.40
2023-05-15T00:59:02.266Z,3.40
2023-05-15T01:00:02.370Z,3.40
2023-05-15T01:01:02.875Z,3.40
2023-05-15T01:02:02.715Z,3.40
2023-05-15T01:03:02.831Z,3.40
2023-05-15T01:04:02.934Z,3.40
2023-05-15T01:05:03.006Z,3.40
2023-05-15T01:06:02.992Z,3.40
2023-05-15T01:07:02.911Z,3.40
2023-05-15T01:08:02.869Z,3.40
2023-05-15T01:09:03.298Z,3.30
2023-05-15T01:10:03.100Z,3.30
2023-05-15T01:11:03.096Z,3.30
2023-05-15T01:12:03.117Z,3.30
2023-05-15T01:13:03.220Z,3.30
2023-05-15T01:14:03.054Z,3.40
2023-05-15T01:15:03.514Z,3.40
2023-05-15T01:16:03.458Z,3.40
2023-05-15T01:17:03.394Z,3.40
2023-05-15T01:18:02.517Z,3.40
2023-05-15T01:19:02.646Z,3.30
2023-05-15T01:20:02.562Z,3.30
2023-05-15T01:21:02.490Z,3.30
2023-05-15T01:22:02.686Z,3.30
2023-05-15T01:23:02.605Z,3.30
2023-05-15T01:24:02.579Z,3.40
2023-05-15T01:25:02.539Z,3.40
2023-05-15T01:26:02.453Z,3.40
2023-05-15T01:27:03.081Z,3.40
2023-05-15T01:28:02.909Z,3.40
2023-05-15T01:29:02.752Z,3.60
2023-05-15T01:30:02.732Z,3.60
2023-05-15T01:31:02.690Z,3.60
2023-05-15T01:32:02.794Z,3.60
2023-05-15T01:33:02.560Z,3.60
2023-05-15T01:34:02.638Z,3.20
2023-05-15T01:35:02.669Z,3.20
2023-05-15T01:36:02.535Z,3.20
2023-05-15T01:37:02.520Z,3.20
2023-05-15T01:38:02.647Z,3.20
2023-05-15T01:39:02.682Z,3.60
2023-05-15T01:40:02.601Z,3.60
2023-05-15T01:41:02.654Z,3.60
2023-05-15T01:42:02.625Z,3.60
2023-05-15T01:43:03.231Z,3.60
2023-05-15T01:44:03.263Z,3.60
2023-05-15T01:45:03.238Z,3.60
2023-05-15T01:46:03.219Z,3.60
2023-05-15T01:47:03.102Z,3.60
2023-05-15T01:48:03.092Z,3.60
2023-05-15T01:49:02.847Z,3.60
2023-05-15T01:50:02.915Z,3.60
2023-05-15T01:51:02.863Z,3.60
2023-05-15T01:52:02.804Z,3.60
2023-05-15T01:53:02.595Z,3.60
2023-05-15T01:54:02.816Z,3.50
2023-05-15T01:55:02.631Z,3.50
2023-05-15T01:56:02.693Z,3.50
2023-05-15T01:57:02.735Z,3.50
2023-05-15T01:58:03.135Z,3.50
2023-05-15T01:59:02.863Z,3.50
2023-05-15T02:00:03.335Z,3.50
2023-05-15T02:01:03.261Z,3.50
2023-05-15T02:02:03.294Z,3.50
2023-05-15T02:03:02.861Z,3.50
2023-05-15T02:04:02.964Z,3.50
2023-05-15T02:05:02.731Z,3.50
2023-05-15T02:06:02.561Z,3.50
2023-05-15T02:07:03.071Z,3.50
2023-05-15T02:08:03.119Z,3.50
2023-05-15T02:09:03.061Z,3.80
2023-05-15T02:10:03.021Z,3.80
2023-05-15T02:11:03.016Z,3.80
2023-05-15T02:12:02.984Z,3.80
2023-05-15T02:13:02.612Z,3.80
2023-05-15T02:14:02.558Z,3.60
2023-05-15T02:15:02.477Z,3.60
2023-05-15T02:16:02.812Z,3.60
2023-05-15T02:17:02.687Z,3.60
2023-05-15T02:18:02.727Z,3.60
2023-05-15T02:19:02.652Z,3.60
2023-05-15T02:20:02.659Z,3.60
2023-05-15T02:21:02.842Z,3.60
2023-05-15T02:22:02.535Z,3.60
2023-05-15T02:23:03.156Z,3.60
2023-05-15T02:24:03.132Z,3.90
2023-05-15T02:25:03.091Z,3.90
2023-05-15T02:26:02.920Z,3.90
2023-05-15T02:27:02.896Z,3.90
2023-05-15T02:28:02.495Z,3.90
2023-05-15T02:29:02.420Z,3.60
2023-05-15T02:30:02.379Z,3.60
2023-05-15T02:31:02.753Z,3.60
2023-05-15T02:32:02.706Z,3.60
2023-05-15T02:33:03.055Z,3.60
2023-05-15T02:34:03.041Z,3.50
2023-05-15T02:35:02.919Z,3.50
2023-05-15T02:36:02.867Z,3.50
2023-05-15T02:37:02.808Z,3.50
2023-05-15T02:38:03.537Z,3.50
2023-05-15T02:39:03.014Z,3.90
2023-05-15T02:40:03.064Z,3.90
2023-05-15T02:41:03.077Z,3.90
2023-05-15T02:42:03.053Z,3.90
2023-05-15T02:43:02.720Z,3.90
2023-05-15T02:44:02.583Z,3.60
2023-05-15T02:45:02.603Z,3.60
2023-05-15T02:46:02.691Z,3.60
2023-05-15T02:47:02.536Z,3.60
2023-05-15T02:48:03.326Z,3.60
2023-05-15T02:49:02.688Z,3.70
2023-05-15T02:50:03.226Z,3.70
2023-05-15T02:51:02.988Z,3.70
2023-05-15T02:52:02.654Z,3.70
2023-05-15T02:53:03.405Z,3.70
2023-05-15T02:54:03.113Z,4.00
2023-05-15T02:55:03.097Z,4.00
2023-05-15T02:56:03.052Z,4.00
2023-05-15T02:57:03.117Z,4.00
2023-05-15T02:58:02.894Z,4.00
2023-05-15T02:59:02.702Z,4.20
2023-05-15T03:00:02.858Z,4.20
2023-05-15T03:01:02.764Z,4.20
2023-05-15T03:02:02.716Z,4.20
2023-05-15T03:03:02.838Z,4.20
2023-05-15T03:04:02.970Z,4.20
2023-05-15T03:05:02.840Z,4.20
2023-05-15T03:06:02.843Z,4.20
2023-05-15T03:07:02.789Z,4.20
2023-05-15T03:08:01.858Z,4.20
2023-05-15T03:09:02.495Z,4.20
2023-05-15T03:10:02.475Z,4.20
2023-05-15T03:11:01.879Z,4.20
2023-05-15T03:12:02.177Z,4.20
2023-05-15T03:13:02.837Z,4.20
2023-05-15T03:14:02.563Z,4.90
2023-05-15T03:15:02.229Z,4.90
2023-05-15T03:16:02.226Z,4.90
2023-05-15T03:17:02.209Z,4.90
2023-05-15T03:18:02.033Z,4.90
2023-05-15T03:19:01.961Z,4.30
2023-05-15T03:20:02.007Z,4.30
2023-05-15T03:21:01.954Z,4.30
2023-05-15T03:22:01.903Z,4.30
2023-05-15T03:23:02.106Z,4.30
2023-05-15T03:24:02.060Z,4.70
2023-05-15T03:25:02.061Z,4.70
2023-05-15T03:26:02.130Z,4.70
2023-05-15T03:27:02.096Z,4.70
2023-05-15T03:28:01.870Z,4.70
2023-05-15T03:29:01.957Z,4.50
2023-05-15T03:30:01.978Z,4.50
2023-05-15T03:31:01.980Z,4.50
2023-05-15T03:32:02.080Z,4.50
2023-05-15T03:33:02.186Z,4.50
2023-05-15T03:34:02.221Z,4.20
2023-05-15T03:35:02.190Z,4.20
2023-05-15T03:36:02.188Z,4.20
2023-05-15T03:37:02.194Z,4.20
2023-05-15T03:38:02.215Z,4.20
2023-05-15T03:39:02.277Z,4.50
2023-05-15T03:40:02.195Z,4.50
2023-05-15T03:41:02.268Z,4.50
2023-05-15T03:42:02.280Z,4.50
2023-05-15T03:43:02.282Z,4.50
2023-05-15T03:44:02.476Z,4.40
2023-05-15T03:45:02.824Z,4.40
2023-05-15T03:46:02.656Z,4.40
2023-05-15T03:47:02.343Z,4.40
2023-05-15T03:48:02.504Z,4.40
2023-05-15T03:49:02.415Z,4.90
2023-05-15T03:50:02.555Z,4.90
2023-05-15T03:51:02.913Z,4.90
2023-05-15T03:52:02.779Z,4.90
2023-05-15T03:53:01.874Z,4.90
2023-05-15T03:54:01.881Z,5.20
2023-05-15T03:55:01.979Z,5.20
2023-05-15T03:56:02.148Z,5.20
2023-05-15T03:57:02.251Z,5.20
2023-05-15T03:58:02.057Z,5.20
2023-05-15T03:59:02.116Z,4.30
2023-05-15T04:00:02.171Z,4.30
2023-05-15T04:01:02.458Z,4.30
2023-05-15T04:02:04.958Z,4.30
2023-05-15T04:03:02.976Z,4.30
2023-05-15T04:04:03.119Z,5.20
2023-05-15T04:05:03.156Z,5.20
2023-05-15T04:06:02.751Z,5.20
2023-05-15T04:07:02.782Z,5.20
2023-05-15T04:08:02.834Z,5.20
2023-05-15T04:09:02.940Z,5.10
2023-05-15T04:10:03.051Z,5.10
2023-05-15T04:11:03.097Z,5.10
2023-05-15T04:12:03.257Z,5.10
2023-05-15T04:13:02.372Z,5.10
2023-05-15T04:14:02.451Z,5.90
2023-05-15T04:15:02.619Z,5.90
2023-05-15T04:16:02.408Z,5.90
2023-05-15T04:17:02.564Z,5.90
2023-05-15T04:18:02.764Z,5.90
2023-05-15T04:19:03.057Z,5.50
2023-05-15T04:20:02.458Z,5.50
2023-05-15T04:21:02.879Z,5.50
2023-05-15T04:22:02.913Z,5.50
2023-05-15T04:23:03.005Z,5.50
2023-05-15T04:24:03.212Z,5.70
2023-05-15T04:25:03.401Z,5.70
2023-05-15T04:26:03.333Z,5.70
2023-05-15T04:27:03.240Z,5.70
2023-05-15T04:28:02.246Z,5.70
2023-05-15T04:29:04.527Z,5.90
2023-05-15T04:30:02.398Z,5.90
2023-05-15T04:31:02.382Z,5.90
2023-05-15T04:32:02.579Z,5.90
2023-05-15T04:33:02.844Z,5.90
2023-05-15T04:34:03.049Z,5.90
2023-05-15T04:35:03.096Z,5.90
2023-05-15T04:36:02.981Z,5.90
2023-05-15T04:37:03.056Z,5.90
2023-05-15T04:38:03.058Z,5.90
2023-05-15T04:39:03.170Z,5.90
2023-05-15T04:40:02.846Z,5.90
2023-05-15T04:41:02.900Z,5.90
2023-05-15T04:42:02.909Z,5.90
2023-05-15T04:43:02.562Z,5.90
2023-05-15T04:44:02.790Z,6.40
2023-05-15T04:45:02.440Z,6.40
2023-05-15T04:46:02.356Z,6.40
2023-05-15T04:47:02.624Z,6.40
2023-05-15T04:48:02.771Z,6.40
2023-05-15T04:49:02.805Z,6.80
2023-05-15T04:50:03.023Z,6.80
2023-05-15T04:51:02.890Z,6.80
2023-05-15T04:52:02.977Z,6.80
2023-05-15T04:53:02.795Z,6.80
2023-05-15T04:54:02.442Z,6.80
2023-05-15T04:55:02.577Z,6.80
2023-05-15T04:56:02.715Z,6.80
2023-05-15T04:57:02.781Z,6.80
2023-05-15T04:58:02.802Z,6.80
2023-05-15T04:59:02.606Z,7.70
2023-05-15T05:00:03.068Z,7.70
2023-05-15T05:01:04.139Z,7.70
2023-05-15T05:02:03.122Z,7.70
2023-05-15T05:03:03.472Z,7.70
2023-05-15T05:04:02.858Z,7.90
2023-05-15T05:05:03.098Z,7.90
2023-05-15T05:06:03.227Z,7.90
2023-05-15T05:07:03.469Z,7.90
2023-05-15T05:08:03.327Z,7.90
2023-05-15T05:09:03.419Z,7.90
2023-05-15T05:10:03.111Z,7.90
2023-05-15T05:11:03.550Z,7.90
2023-05-15T05:12:03.165Z,7.90
2023-05-15T05:13:02.709Z,7.90
2023-05-15T05:14:02.720Z,7.90
2023-05-15T05:15:02.829Z,7.90
2023-05-15T05:16:02.583Z,7.90
2023-05-15T05:17:02.767Z,7.90
2023-05-15T05:18:03.451Z,7.90
2023-05-15T05:19:03.408Z,8.40
2023-05-15T05:20:03.009Z,8.40
2023-05-15T05:21:03.143Z,8.40
2023-05-15T05:22:03.444Z,8.40
2023-05-15T05:23:03.647Z,8.40
2023-05-15T05:24:03.415Z,8.80
2023-05-15T05:25:03.651Z,8.80
2023-05-15T05:26:05.379Z,8.80
2023-05-15T05:27:03.200Z,8.80
2023-05-15T05:28:03.017Z,8.80
2023-05-15T05:29:02.637Z,9.80
2023-05-15T05:30:02.899Z,9.80
2023-05-15T05:31:02.758Z,9.80
2023-05-15T05:32:02.943Z,9.80
2023-05-15T05:33:03.613Z,9.80
2023-05-15T05:34:03.609Z,10.10
2023-05-15T05:35:03.354Z,10.10
2023-05-15T05:36:03.408Z,10.10
2023-05-15T05:37:03.611Z,10.10
2023-05-15T05:38:03.269Z,10.10
2023-05-15T05:39:03.379Z,10.70
2023-05-15T05:40:03.357Z,10.70
2023-05-15T05:41:03.261Z,10.70
2023-05-15T05:42:02.758Z,10.70
2023-05-15T05:43:03.641Z,10.70
2023-05-15T05:44:03.331Z,11.40
2023-05-15T05:45:03.345Z,11.40
2023-05-15T05:46:03.405Z,11.40
2023-05-15T05:47:03.589Z,11.40
2023-05-15T05:48:03.124Z,11.40
2023-05-15T05:49:02.863Z,15.80
2023-05-15T05:50:02.884Z,15.80
2023-05-15T05:51:03.006Z,15.80
2023-05-15T05:52:02.953Z,15.80
2023-05-15T05:53:03.359Z,15.80
2023-05-15T05:54:02.859Z,16.20
2023-05-15T05:55:03.161Z,16.20
2023-05-15T05:56:02.933Z,16.20
2023-05-15T05:57:02.731Z,16.20
2023-05-15T05:58:06.485Z,16.20
2023-05-15T05:59:03.467Z,17.90
2023-05-15T06:00:03.788Z,17.90
2023-05-15T06:01:03.675Z,17.90
2023-05-15T06:02:03.309Z,17.90
2023-05-15T06:03:03.334Z,17.90
2023-05-15T06:04:02.739Z,18.20
2023-05-15T06:05:02.937Z,18.20
2023-05-15T06:06:03.104Z,18.20
2023-05-15T06:07:02.871Z,18.20
2023-05-15T06:08:02.147Z,18.20
2023-05-15T06:09:02.704Z,23.70
2023-05-15T06:10:02.565Z,23.70
2023-05-15T06:11:02.715Z,23.70
2023-05-15T06:12:02.698Z,23.70
2023-05-15T06:13:02.169Z,23.70
2023-05-15T06:14:02.577Z,32.50
2023-05-15T06:15:02.424Z,32.50
2023-05-15T06:16:02.799Z,32.50
2023-05-15T06:17:02.922Z,32.50
2023-05-15T06:18:02.558Z,32.50
2023-05-15T06:19:02.769Z,39.10
2023-05-15T06:20:03.106Z,39.10
2023-05-15T06:21:02.719Z,39.10
2023-05-15T06:22:02.755Z,39.10
2023-05-15T06:23:02.580Z,39.10
2023-05-15T06:24:02.608Z,42.90
2023-05-15T06:25:03.032Z,42.90
2023-05-15T06:26:03.121Z,42.90
2023-05-15T06:27:03.236Z,42.90
2023-05-15T06:28:02.344Z,42.90
2023-05-15T06:29:02.291Z,53.60
2023-05-15T06:30:02.606Z,53.60
2023-05-15T06:31:02.695Z,53.60
2023-05-15T06:32:02.761Z,53.60
2023-05-15T06:33:03.090Z,53.60
2023-05-15T06:34:03.028Z,53.20
2023-05-15T06:35:02.860Z,53.20
2023-05-15T06:36:02.870Z,53.20
2023-05-15T06:37:03.296Z,53.20
2023-05-15T06:38:03.228Z,53.20
2023-05-15T06:39:03.525Z,50.80
2023-05-15T06:40:03.608Z,50.80
2023-05-15T06:41:03.298Z,50.80
2023-05-15T06:42:03.339Z,50.80
2023-05-15T06:43:02.650Z,50.80
2023-05-15T06:44:02.666Z,51.20
2023-05-15T06:45:03.156Z,51.20
2023-05-15T06:46:02.646Z,51.20
2023-05-15T06:47:02.726Z,51.20
2023-05-15T06:48:02.856Z,51.20
2023-05-15T06:49:02.950Z,53.90
2023-05-15T06:50:03.161Z,53.90
2023-05-15T06:51:03.129Z,53.90
2023-05-15T06:52:03.172Z,53.90
2023-05-15T06:53:02.364Z,53.90
2023-05-15T06:54:02.230Z,52.50
2023-05-15T06:55:02.402Z,52.50
2023-05-15T06:56:02.195Z,52.50
2023-05-15T06:57:02.665Z,52.50
2023-05-15T06:58:02.494Z,52.50
2023-05-15T06:59:02.447Z,54.10
2023-05-15T07:00:02.769Z,54.10
2023-05-15T07:01:02.759Z,54.10
2023-05-15T07:02:03.220Z,54.10
2023-05-15T07:03:02.691Z,54.10
2023-05-15T07:04:02.458Z,55.50
2023-05-15T07:05:02.981Z,55.50
2023-05-15T07:06:03.103Z,55.50
2023-05-15T07:07:02.798Z,55.50
2023-05-15T07:08:02.170Z,55.50
2023-05-15T07:09:02.462Z,56.10
2023-05-15T07:10:02.360Z,56.10
2023-05-15T07:11:02.322Z,56.10
2023-05-15T07:12:02.278Z,56.10
2023-05-15T07:13:02.078Z,56.10
2023-05-15T07:14:01.813Z,57.80
2023-05-15T07:15:02.246Z,57.80
2023-05-15T07:16:01.976Z,57.80
2023-05-15T07:17:01.696Z,57.80
2023-05-15T07:18:02.681Z,57.80
2023-05-15T07:19:02.481Z,59.30
2023-05-15T07:20:02.534Z,59.30
2023-05-15T07:21:02.574Z,59.30
2023-05-15T07:22:03.526Z,59.30
2023-05-15T07:23:02.677Z,59.30
2023-05-15T07:24:02.840Z,60.90
2023-05-15T07:25:02.787Z,60.90
2023-05-15T07:26:02.788Z,60.90
2023-05-15T07:27:02.708Z,60.90
2023-05-15T07:28:02.722Z,60.90
2023-05-15T07:29:03.091Z,60.30
2023-05-15T07:30:02.587Z,60.30
2023-05-15T07:31:03.297Z,60.30
2023-05-15T07:32:03.109Z,60.30
2023-05-15T07:33:02.453Z,60.30
2023-05-15T07:34:02.547Z,62.10
2023-05-15T07:35:02.260Z,62.10
2023-05-15T07:36:02.735Z,62.10
2023-05-15T07:37:02.221Z,62.10
2023-05-15T07:38:02.962Z,62.10
2023-05-15T07:39:02.884Z,57.50
2023-05-15T07:40:02.649Z,57.50
2023-05-15T07:41:02.818Z,57.50
2023-05-15T07:42:02.912Z,57.50
2023-05-15T07:43:02.295Z,57.50
2023-05-15T07:44:02.124Z,56.50
2023-05-15T07:45:02.598Z,56.50
2023-05-15T07:46:02.307Z,56.50
2023-05-15T07:47:02.533Z,56.50
2023-05-15T07:48:02.978Z,56.50
2023-05-15T07:49:02.692Z,49.00
2023-05-15T07:50:02.954Z,49.00
2023-05-15T07:51:03.155Z,49.00
2023-05-15T07:52:03.260Z,49.00
2023-05-15T07:53:02.595Z,49.00
2023-05-15T07:54:02.447Z,51.70
2023-05-15T07:55:02.319Z,51.70
2023-05-15T07:56:02.007Z,51.70
2023-05-15T07:57:02.122Z,51.70
2023-05-15T07:58:03.043Z,51.70
2023-05-15T07:59:03.176Z,53.00
2023-05-15T08:00:03.150Z,53.00
2023-05-15T08:01:02.639Z,53.00
2023-05-15T08:02:02.797Z,53.00
2023-05-15T08:03:02.655Z,53.00
2023-05-15T08:04:02.254Z,50.30
2023-05-15T08:05:02.133Z,50.30
2023-05-15T08:06:02.588Z,50.30
2023-05-15T08:07:02.045Z,50.30
2023-05-15T08:08:02.533Z,50.30
2023-05-15T08:09:02.709Z,50.30
2023-05-15T08:10:02.604Z,50.30
2023-05-15T08:11:02.138Z,50.30
2023-05-15T08:12:02.076Z,50.30
2023-05-15T08:13:03.157Z,50.30
2023-05-15T08:14:03.152Z,50.70
2023-05-15T08:15:02.798Z,50.70
2023-05-15T08:16:03.283Z,50.70
2023-05-15T08:17:02.708Z,50.70
2023-05-15T08:18:02.517Z,50.70
2023-05-15T08:19:02.249Z,50.40
2023-05-15T08:20:02.270Z,50.40
2023-05-15T08:21:04.140Z,50.40
2023-05-15T08:22:02.612Z,50.40
2023-05-15T08:23:02.796Z,50.40
2023-05-15T08:24:02.428Z,51.10
2023-05-15T08:25:02.938Z,51.10
2023-05-15T08:26:02.927Z,51.10
2023-05-15T08:27:02.619Z,51.10
2023-05-15T08:28:02.839Z,51.10
2023-05-15T08:29:02.915Z,53.00
2023-05-15T08:30:02.327Z,53.00
2023-05-15T08:31:02.889Z,53.00
2023-05-15T08:32:02.776Z,53.00
2023-05-15T08:33:02.735Z,53.00
2023-05-15T08:34:02.809Z,53.90
2023-05-15T08:35:03.055Z,53.90
2023-05-15T08:36:02.621Z,53.90
2023-05-15T08:37:02.916Z,53.90
2023-05-15T08:38:02.590Z,53.90
2023-05-15T08:39:02.345Z,54.60
2023-05-15T08:40:02.185Z,54.60
2023-05-15T08:41:02.435Z,54.60
2023-05-15T08:42:02.078Z,54.60
2023-05-15T08:43:03.273Z,54.60
2023-05-15T08:44:02.975Z,52.20
2023-05-15T08:45:02.926Z,52.20
2023-05-15T08:46:03.284Z,52.20
2023-05-15T08:47:02.903Z,52.20
2023-05-15T08:48:03.048Z,52.20
2023-05-15T08:49:03.050Z,52.60
2023-05-15T08:50:02.613Z,52.60
2023-05-15T08:51:02.454Z,52.60
2023-05-15T08:52:03.047Z,52.60
2023-05-15T08:53:03.523Z,52.60
2023-05-15T08:54:03.108Z,52.60
2023-05-15T08:55:03.293Z,52.60
2023-05-15T08:56:03.402Z,52.60
2023-05-15T08:57:03.131Z,52.60
2023-05-15T08:58:02.120Z,52.60
2023-05-15T08:59:02.391Z,51.40
2023-05-15T09:00:02.800Z,51.40
2023-05-15T09:01:02.795Z,51.40
2023-05-15T09:02:02.212Z,51.40
2023-05-15T09:03:02.264Z,51.40
2023-05-15T09:04:02.902Z,52.20
2023-05-15T09:05:02.517Z,52.20
2023-05-15T09:06:02.747Z,52.20
2023-05-15T09:07:02.713Z,52.20
2023-05-15T09:08:02.260Z,52.20
2023-05-15T09:09:02.817Z,53.80
2023-05-15T09:10:02.429Z,53.80
2023-05-15T09:11:02.492Z,53.80
2023-05-15T09:12:02.540Z,53.80
2023-05-15T09:13:02.671Z,53.80
2023-05-15T09:14:01.701Z,54.60
2023-05-15T09:15:02.290Z,54.60
2023-05-15T09:16:01.686Z,54.60
2023-05-15T09:17:02.246Z,54.60
2023-05-15T09:18:02.273Z,54.60
2023-05-15T09:19:02.468Z,53.70
2023-05-15T09:20:02.535Z,53.70
2023-05-15T09:21:02.583Z,53.70
2023-05-15T09:22:02.852Z,53.70
2023-05-15T09:23:02.558Z,53.70
2023-05-15T09:24:02.139Z,54.10
2023-05-15T09:25:02.061Z,54.10
2023-05-15T09:26:01.893Z,54.10
2023-05-15T09:27:02.370Z,54.10
2023-05-15T09:28:01.935Z,54.10
2023-05-15T09:29:02.812Z,53.70
2023-05-15T09:30:02.846Z,53.70
2023-05-15T09:31:02.992Z,53.70
2023-05-15T09:32:02.788Z,53.70
2023-05-15T09:33:02.791Z,53.70
2023-05-15T09:34:02.511Z,54.00
2023-05-15T09:35:02.641Z,54.00
2023-05-15T09:36:02.666Z,54.00
2023-05-15T09:37:02.446Z,54.00
2023-05-15T09:38:02.839Z,54.00
2023-05-15T09:39:02.743Z,54.20
2023-05-15T09:40:02.742Z,54.20
2023-05-15T09:41:02.655Z,54.20
2023-05-15T09:42:03.156Z,54.20
2023-05-15T09:43:03.242Z,54.20
2023-05-15T09:44:02.738Z,52.90
2023-05-15T09:45:03.029Z,52.90
2023-05-15T09:46:02.822Z,52.90
2023-05-15T09:47:02.704Z,52.90
2023-05-15T09:48:03.186Z,52.90
2023-05-15T09:49:01.955Z,51.20
2023-05-15T09:50:02.058Z,51.20
2023-05-15T09:51:02.221Z,51.20
2023-05-15T09:52:01.839Z,51.20
2023-05-15T09:53:02.013Z,51.20
2023-05-15T09:54:02.886Z,50.40
2023-05-15T09:55:02.597Z,50.40
2023-05-15T09:56:02.521Z,50.40
2023-05-15T09:57:02.624Z,50.40
2023-05-15T09:58:02.472Z,50.40
2023-05-15T09:59:02.322Z,51.00
2023-05-15T10:00:02.367Z,51.00
2023-05-15T10:01:02.103Z,51.00
2023-05-15T10:02:02.364Z,51.00
2023-05-15T10:03:02.372Z,51.00
2023-05-15T10:04:03.314Z,50.30
2023-05-15T10:05:03.149Z,50.30
2023-05-15T10:06:03.419Z,50.30
2023-05-15T10:07:03.169Z,50.30
2023-05-15T10:08:02.900Z,50.30
2023-05-15T10:09:02.410Z,49.00
2023-05-15T10:10:02.371Z,49.00
2023-05-15T10:11:02.776Z,49.00
2023-05-15T10:12:02.563Z,49.00
2023-05-15T10:13:02.452Z,49.00
2023-05-15T10:14:03.093Z,49.90
2023-05-15T10:15:02.836Z,49.90
2023-05-15T10:16:03.359Z,49.90
2023-05-15T10:17:02.999Z,49.90
2023-05-15T10:18:02.915Z,49.90
2023-05-15T10:19:04.928Z,47.60
2023-05-15T10:20:02.563Z,47.60
2023-05-15T10:21:02.537Z,47.60
2023-05-15T10:22:02.568Z,47.60
2023-05-15T10:23:03.030Z,47.60
2023-05-15T10:24:03.182Z,48.80
2023-05-15T10:25:03.655Z,48.80
2023-05-15T10:26:03.562Z,48.80
2023-05-15T10:27:03.211Z,48.80
2023-05-15T10:28:03.704Z,48.80
2023-05-15T10:29:03.125Z,46.10
2023-05-15T10:30:02.927Z,46.10
2023-05-15T10:31:03.007Z,46.10
2023-05-15T10:32:03.056Z,46.10
2023-05-15T10:33:02.990Z,46.10
2023-05-15T10:34:02.319Z,46.10
2023-05-15T10:35:02.379Z,46.10
2023-05-15T10:36:02.268Z,46.10
2023-05-15T10:37:02.905Z,46.10
2023-05-15T10:38:02.431Z,46.10
2023-05-15T10:39:02.868Z,45.50
2023-05-15T10:40:02.657Z,45.50
2023-05-15T10:41:15.928Z,45.50
2023-05-15T10:42:02.809Z,45.50
2023-05-15T10:43:03.201Z,45.50
2023-05-15T10:44:03.442Z,46.80
2023-05-15T10:45:03.246Z,46.80
2023-05-15T10:46:03.687Z,46.80
2023-05-15T10:47:03.388Z,46.80
2023-05-15T10:48:03.366Z,46.80
2023-05-15T10:49:02.985Z,43.20
2023-05-15T10:50:02.572Z,43.20
2023-05-15T10:51:02.890Z,43.20
2023-05-15T10:52:02.529Z,43.20
2023-05-15T10:53:02.878Z,43.20
2023-05-15T10:54:03.357Z,42.60
2023-05-15T10:55:03.556Z,42.60
2023-05-15T10:56:03.580Z,42.60
2023-05-15T10:57:03.136Z,42.60
2023-05-15T10:58:03.618Z,42.60
2023-05-15T10:59:02.606Z,42.90
2023-05-15T11:00:02.941Z,42.90
2023-05-15T11:01:03.038Z,42.90
2023-05-15T11:02:02.508Z,42.90
2023-05-15T11:03:03.054Z,42.90
2023-05-15T11:04:02.003Z,41.30
2023-05-15T11:05:02.197Z,41.30
2023-05-15T11:06:02.514Z,41.30
2023-05-15T11:07:02.115Z,41.30
2023-05-15T11:08:02.014Z,41.30
2023-05-15T11:09:02.702Z,39.80
2023-05-15T11:10:04.327Z,39.80
2023-05-15T11:11:03.004Z,39.80
2023-05-15T11:12:03.208Z,39.80
2023-05-15T11:13:02.765Z,39.80
2023-05-15T11:14:02.092Z,39.10
2023-05-15T11:15:02.332Z,39.10
2023-05-15T11:16:02.022Z,39.10
2023-05-15T11:17:02.062Z,39.10
2023-05-15T11:18:02.042Z,39.10
2023-05-15T11:19:02.478Z,38.30
2023-05-15T11:20:01.973Z,38.30
2023-05-15T11:21:02.273Z,38.30
2023-05-15T11:22:02.229Z,38.30
2023-05-15T11:23:02.563Z,38.30
2023-05-15T11:24:02.996Z,34.50
2023-05-15T11:25:02.349Z,34.50
2023-05-15T11:26:02.405Z,34.50
2023-05-15T11:27:02.840Z,34.50
2023-05-15T11:28:02.749Z,34.50
2023-05-15T11:29:02.909Z,32.30
2023-05-15T11:30:03.135Z,32.30
2023-05-15T11:31:02.785Z,32.30
2023-05-15T11:32:03.014Z,32.30
2023-05-15T11:33:02.839Z,32.30
2023-05-15T11:34:02.815Z,31.50
2023-05-15T11:35:02.927Z,31.50
2023-05-15T11:36:03.150Z,31.50
2023-05-15T11:37:03.342Z,31.50
2023-05-15T11:38:03.361Z,31.50
2023-05-15T11:39:03.452Z,31.70
2023-05-15T11:40:03.256Z,31.70
2023-05-15T11:41:03.502Z,31.70
2023-05-15T11:42:03.153Z,31.70
2023-05-15T11:43:03.037Z,31.70
2023-05-15T11:44:02.070Z,32.40
2023-05-15T11:45:02.214Z,32.40
2023-05-15T11:46:02.223Z,32.40
2023-05-15T11:47:02.484Z,32.40
2023-05-15T11:48:02.302Z,32.40
2023-05-15T11:49:02.469Z,31.90
2023-05-15T11:50:02.095Z,31.90
2023-05-15T11:51:02.534Z,31.90
2023-05-15T11:52:02.439Z,31.90
2023-05-15T11:53:02.705Z,31.90
2023-05-15T11:54:02.532Z,29.00
2023-05-15T11:55:02.492Z,29.00
2023-05-15T11:56:03.124Z,29.00
2023-05-15T11:57:02.871Z,29.00
2023-05-15T11:58:02.549Z,29.00
2023-05-15T11:59:02.704Z,28.70
2023-05-15T12:00:03.040Z,28.70
2023-05-15T12:01:03.097Z,28.70
2023-05-15T12:02:02.878Z,28.70
2023-05-15T12:03:03.152Z,28.70
2023-05-15T12:04:02.775Z,28.90
2023-05-15T12:05:02.175Z,28.90
2023-05-15T12:06:02.075Z,28.90
2023-05-15T12:07:03.192Z,28.90
2023-05-15T12:08:02.365Z,28.90
2023-05-15T12:09:02.551Z,24.80
2023-05-15T12:10:02.646Z,24.80
2023-05-15T12:11:02.530Z,24.80
2023-05-15T12:12:02.526Z,24.80
2023-05-15T12:13:02.832Z,24.80
2023-05-15T12:14:02.707Z,24.60
2023-05-15T12:15:02.524Z,24.60
2023-05-15T12:16:02.494Z,24.60
2023-05-15T12:17:02.598Z,24.60
2023-05-15T12:18:02.504Z,24.60
2023-05-15T12:19:02.713Z,23.80
2023-05-15T12:20:03.016Z,23.80
2023-05-15T12:21:02.901Z,23.80
2023-05-15T12:22:02.465Z,23.80
2023-05-15T12:23:03.056Z,23.80
2023-05-15T12:24:08.164Z,23.00
2023-05-15T12:25:03.274Z,23.00
2023-05-15T12:26:03.006Z,23.00
2023-05-15T12:27:03.015Z,23.00
2023-05-15T12:28:02.784Z,23.00
2023-05-15T12:29:02.321Z,22.10
2023-05-15T12:30:02.615Z,22.10
2023-05-15T12:31:02.130Z,22.10
2023-05-15T12:32:02.607Z,22.10
2023-05-15T12:33:02.630Z,22.10
2023-05-15T12:34:02.936Z,18.30
2023-05-15T12:35:02.445Z,18.30
2023-05-15T12:36:02.490Z,18.30
2023-05-15T12:37:02.957Z,18.30
2023-05-15T12:38:02.427Z,18.30
2023-05-15T12:39:03.526Z,15.00
2023-05-15T12:40:03.250Z,15.00
2023-05-15T12:41:03.107Z,15.00
2023-05-15T12:42:03.193Z,15.00
2023-05-15T12:43:02.918Z,15.00
2023-05-15T12:44:02.877Z,14.80
2023-05-15T12:45:02.453Z,14.80
2023-05-15T12:46:02.779Z,14.80
2023-05-15T12:47:02.921Z,14.80
2023-05-15T12:48:02.810Z,14.80
2023-05-15T12:49:02.675Z,15.60
2023-05-15T12:50:03.228Z,15.60
2023-05-15T12:51:02.701Z,15.60
2023-05-15T12:52:03.056Z,15.60
2023-05-15T12:53:03.036Z,15.60
2023-05-15T12:54:03.212Z,13.40
2023-05-15T12:55:03.146Z,13.40
2023-05-15T12:56:02.805Z,13.40
2023-05-15T12:57:03.343Z,13.40
2023-05-15T12:58:03.411Z,13.40
2023-05-15T12:59:03.201Z,14.30
2023-05-15T13:00:03.375Z,14.30
2023-05-15T13:01:03.176Z,14.30
2023-05-15T13:02:03.345Z,14.30
2023-05-15T13:03:03.061Z,14.30